createdAt,value
2022-10-26T00:01:16.596Z,101719.28
2022-10-26T00:03:46.544Z,101711.03
2022-10-26T00:06:19.067Z,101714.13
2022-10-26T00:08:46.646Z,101708.47
2022-10-26T00:11:14.414Z,101710.56
2022-10-26T00:13:42.328Z,101706.16
2022-10-26T00:16:12.103Z,101702.59
2022-10-26T00:18:39.232Z,101706.03
2022-10-26T00:21:07.922Z,101708.34
2022-10-26T00:23:35.271Z,101700.38
2022-10-26T00:26:02.704Z,101703.13
2022-10-26T00:28:30.056Z,101706.22
2022-10-26T00:31:05.706Z,101699.75
2022-10-26T00:33:38.855Z,101698.78
2022-10-26T00:36:06.465Z,101692.19
2022-10-26T00:38:33.718Z,101692.84
2022-10-26T00:41:01.304Z,101693.97
2022-10-26T00:43:28.324Z,101689.44
2022-10-26T00:45:57.530Z,101692.41
2022-10-26T00:48:38.478Z,101688.34
2022-10-26T00:51:35.501Z,101690.97
2022-10-26T00:54:05.841Z,101688.06
2022-10-26T00:56:34.888Z,101686.91
2022-10-26T00:59:09.943Z,101695.84
2022-10-26T01:01:41.218Z,101697.16
2022-10-26T01:04:08.451Z,101690.78
2022-10-26T01:06:38.238Z,101701.63
2022-10-26T01:09:06.362Z,101699.81
2022-10-26T01:11:33.859Z,101698.34
2022-10-26T01:14:04.570Z,101690.56
2022-10-26T01:16:46.435Z,101692.31
2022-10-26T01:19:31.688Z,101680.63
2022-10-26T01:22:11.449Z,101684.53
2022-10-26T01:24:44.442Z,101674.31
2022-10-26T01:27:38.690Z,101675.28
2022-10-26T01:30:17.882Z,101682.09
2022-10-26T01:33:22.645Z,101679.19
2022-10-26T01:36:13.624Z,101670.66
2022-10-26T01:38:50.961Z,101666.59
2022-10-26T01:41:29.993Z,101665.00
2022-10-26T01:44:05.178Z,101665.16
2022-10-26T01:46:38.527Z,101665.03
2022-10-26T01:49:18.267Z,101662.91
2022-10-26T01:51:48.254Z,101657.94
2022-10-26T01:54:15.520Z,101656.97
2022-10-26T01:56:48.457Z,101654.56
2022-10-26T01:59:18.623Z,101657.78
2022-10-26T02:01:49.006Z,101658.72
2022-10-26T02:04:42.355Z,101658.66
2022-10-26T02:07:24.510Z,101651.31
2022-10-26T02:10:04.759Z,101656.13
2022-10-26T02:12:56.646Z,101652.13
2022-10-26T02:15:38.802Z,101654.91
2022-10-26T02:18:09.093Z,101651.72
2022-10-26T02:20:47.546Z,101651.09
2022-10-26T02:23:15.705Z,101648.69
2022-10-26T02:25:48.181Z,101648.19
2022-10-26T02:28:20.269Z,101645.63
2022-10-26T02:30:51.046Z,101640.97
2022-10-26T02:33:20.366Z,101644.72
2022-10-26T02:35:51.173Z,101651.84
2022-10-26T02:38:21.630Z,101649.09
2022-10-26T02:40:51.647Z,101643.59
2022-10-26T02:43:22.437Z,101641.50
2022-10-26T02:45:58.009Z,101640.84
2022-10-26T02:48:25.465Z,101646.50
2022-10-26T02:51:19.425Z,101647.66
2022-10-26T02:53:52.165Z,101646.34
2022-10-26T02:56:25.394Z,101647.34
2022-10-26T02:59:02.538Z,101641.69
2022-10-26T03:01:31.414Z,101640.41
2022-10-26T03:03:59.965Z,101637.81
2022-10-26T03:06:27.636Z,101634.09
2022-10-26T03:08:55.017Z,101639.44
2022-10-26T03:11:22.281Z,101638.47
2022-10-26T03:13:49.448Z,101631.69
2022-10-26T03:16:16.688Z,101639.28
2022-10-26T03:18:43.738Z,101637.19
2022-10-26T03:21:10.878Z,101637.88
2022-10-26T03:23:37.967Z,101640.13
2022-10-26T03:26:05.277Z,101645.44
2022-10-26T03:28:32.354Z,101639.47
2022-10-26T03:30:59.611Z,101641.13
2022-10-26T03:33:27.243Z,101641.94
2022-10-26T03:35:56.994Z,101654.84
2022-10-26T03:38:24.461Z,101644.50
2022-10-26T03:40:54.643Z,101646.59
2022-10-26T03:43:21.813Z,101650.78
2022-10-26T03:45:48.843Z,101658.09
2022-10-26T03:48:16.111Z,101660.84
2022-10-26T03:50:44.969Z,101660.84
2022-10-26T03:53:12.262Z,101663.75
2022-10-26T03:55:39.420Z,101668.47
2022-10-26T03:58:07.248Z,101666.03
2022-10-26T04:00:34.390Z,101666.50
2022-10-26T04:03:01.499Z,101668.94
2022-10-26T04:05:30.513Z,101678.66
2022-10-26T04:08:00.196Z,101667.81
2022-10-26T04:10:27.961Z,101665.56
2022-10-26T04:12:57.501Z,101682.56
2022-10-26T04:15:25.179Z,101681.56
2022-10-26T04:17:59.989Z,101675.44
2022-10-26T04:20:28.234Z,101680.94
2022-10-26T04:23:05.681Z,101684.34
2022-10-26T04:25:33.926Z,101678.66
2022-10-26T04:28:02.899Z,101688.69
2022-10-26T04:30:30.486Z,101686.94
2022-10-26T04:32:57.550Z,101691.28
2022-10-26T04:35:25.040Z,101697.94
2022-10-26T04:37:52.378Z,101693.88
2022-10-26T04:40:20.663Z,101699.06
2022-10-26T04:42:48.584Z,101697.94
2022-10-26T04:45:17.137Z,101695.50
2022-10-26T04:47:44.236Z,101692.75
2022-10-26T04:50:12.746Z,101686.59
2022-10-26T04:52:40.600Z,101691.94
2022-10-26T04:55:08.329Z,101693.25
2022-10-26T04:57:36.454Z,101697.78
2022-10-26T05:00:05.542Z,101706.03
2022-10-26T05:02:32.722Z,101696.97
2022-10-26T05:05:00.089Z,101695.69
2022-10-26T05:07:27.223Z,101700.84
2022-10-26T05:09:54.580Z,101704.25
2022-10-26T05:12:21.675Z,101705.88
2022-10-26T05:14:48.886Z,101712.84
2022-10-26T05:17:16.350Z,101706.84
2022-10-26T05:19:43.493Z,101709.59
2022-10-26T05:22:10.903Z,101714.78
2022-10-26T05:24:38.095Z,101721.91
2022-10-26T05:27:05.138Z,101722.56
2022-10-26T05:29:32.231Z,101713.16
2022-10-26T05:31:59.434Z,101716.38
2022-10-26T05:34:26.514Z,101722.38
2022-10-26T05:36:54.806Z,101721.69
2022-10-26T05:39:22.477Z,101721.94
2022-10-26T05:41:49.827Z,101728.16
2022-10-26T05:44:16.903Z,101733.03
2022-10-26T05:46:44.040Z,101737.19
2022-10-26T05:49:11.312Z,101727.53
2022-10-26T05:51:39.810Z,101741.94
2022-10-26T05:54:08.362Z,101736.91
2022-10-26T05:56:42.134Z,101742.84
2022-10-26T05:59:15.299Z,101745.69
2022-10-26T06:02:07.554Z,101744.59
2022-10-26T06:04:48.189Z,101744.91
2022-10-26T06:07:21.102Z,101754.63
2022-10-26T06:09:49.423Z,101749.38
2022-10-26T06:12:19.475Z,101750.81
2022-10-26T06:14:47.576Z,101755.50
2022-10-26T06:17:35.819Z,101753.91
2022-10-26T06:20:30.324Z,101764.84
2022-10-26T06:23:24.890Z,101757.72
2022-10-26T06:25:54.853Z,101760.97
2022-10-26T06:28:47.267Z,101769.22
2022-10-26T06:31:18.489Z,101765.84
2022-10-26T06:33:48.452Z,101772.59
2022-10-26T06:36:27.655Z,101770.13
2022-10-26T06:39:01.972Z,101780.19
2022-10-26T06:41:32.695Z,101788.22
2022-10-26T06:44:00.380Z,101791.00
2022-10-26T06:46:46.363Z,101792.34
2022-10-26T06:49:28.157Z,101796.09
2022-10-26T06:52:01.879Z,101798.50
2022-10-26T06:54:43.520Z,101797.84
2022-10-26T06:57:13.175Z,101799.81
2022-10-26T06:59:51.826Z,101808.41
2022-10-26T07:02:19.920Z,101814.69
2022-10-26T07:04:47.599Z,101812.16
2022-10-26T07:07:18.657Z,101813.34
2022-10-26T07:09:46.850Z,101819.34
2022-10-26T07:12:14.061Z,101815.09
2022-10-26T07:14:41.301Z,101818.97
2022-10-26T07:17:09.579Z,101826.44
2022-10-26T07:19:36.734Z,101825.06
2022-10-26T07:22:04.210Z,101824.25
2022-10-26T07:24:31.556Z,101832.66
2022-10-26T07:26:59.192Z,101837.09
2022-10-26T07:29:27.353Z,101830.94
2022-10-26T07:34:26.590Z,101837.06
2022-10-26T07:40:10.164Z,101831.38
2022-10-26T07:42:37.629Z,101838.31
2022-10-26T07:45:05.323Z,101843.41
2022-10-26T07:47:32.426Z,101841.09
2022-10-26T07:49:59.592Z,101845.78
2022-10-26T07:52:26.616Z,101848.78
2022-10-26T07:54:53.764Z,101847.59
2022-10-26T07:57:20.846Z,101849.19
2022-10-26T07:59:47.933Z,101844.25
2022-10-26T08:02:15.207Z,101857.59
2022-10-26T08:04:42.216Z,101859.75
2022-10-26T08:07:09.363Z,101856.63
2022-10-26T08:09:36.346Z,101852.41
2022-10-26T08:12:03.439Z,101856.13
2022-10-26T08:14:30.604Z,101857.31
2022-10-26T08:16:57.740Z,101853.13
2022-10-26T08:19:24.910Z,101858.31
2022-10-26T08:21:52.684Z,101857.00
2022-10-26T08:24:19.723Z,101857.59
2022-10-26T08:26:46.867Z,101853.28
2022-10-26T08:29:13.847Z,101853.81
2022-10-26T08:31:41.063Z,101859.88
2022-10-26T08:34:08.494Z,101854.38
2022-10-26T08:36:35.648Z,101860.09
2022-10-26T08:39:02.765Z,101863.31
2022-10-26T08:41:43.426Z,101871.44
2022-10-26T08:44:38.193Z,101870.47
2022-10-26T08:47:05.407Z,101866.69
2022-10-26T08:49:58.815Z,101869.97
2022-10-26T08:53:02.388Z,101862.31
2022-10-26T08:55:35.416Z,101867.47
2022-10-26T08:58:08.748Z,101864.94
2022-10-26T09:00:36.080Z,101868.84
2022-10-26T09:03:14.342Z,101865.81
2022-10-26T09:05:53.436Z,101871.88
2022-10-26T09:08:36.947Z,101870.09
2022-10-26T09:11:10.902Z,101864.41
2022-10-26T09:13:54.145Z,101874.28
2022-10-26T09:16:28.134Z,101878.78
2022-10-26T09:19:26.561Z,101869.91
2022-10-26T09:22:07.185Z,101870.66
2022-10-26T09:24:40.001Z,101880.88
2022-10-26T09:27:22.729Z,101871.44
2022-10-26T09:29:52.159Z,101867.88
2022-10-26T09:32:27.051Z,101867.28
2022-10-26T09:34:59.640Z,101873.72
2022-10-26T09:37:31.431Z,101878.38
2022-10-26T09:40:08.742Z,101882.44
2022-10-26T09:43:03.602Z,101881.88
2022-10-26T09:45:36.211Z,101878.91
2022-10-26T09:48:38.486Z,101876.38
2022-10-26T09:51:05.763Z,101872.19
2022-10-26T09:53:33.373Z,101878.50
2022-10-26T09:56:10.411Z,101878.84
2022-10-26T09:59:02.456Z,101876.88
2022-10-26T10:01:30.437Z,101874.66
2022-10-26T10:04:22.870Z,101871.22
2022-10-26T10:06:52.606Z,101877.41
2022-10-26T10:09:24.883Z,101870.63
2022-10-26T10:12:03.340Z,101873.50
2022-10-26T10:14:39.911Z,101874.41
2022-10-26T10:19:49.466Z,101859.97
2022-10-26T10:22:16.458Z,101863.28
2022-10-26T10:24:55.096Z,101858.88
2022-10-26T10:27:23.561Z,101865.00
2022-10-26T10:29:53.183Z,101860.09
2022-10-26T10:32:23.186Z,101868.22
2022-10-26T10:34:58.947Z,101863.81
2022-10-26T10:37:47.486Z,101861.19
2022-10-26T10:40:26.896Z,101865.72
2022-10-26T10:43:05.957Z,101862.63
2022-10-26T10:45:35.203Z,101859.00
2022-10-26T10:48:13.206Z,101861.66
2022-10-26T10:50:53.376Z,101853.13
2022-10-26T10:53:32.215Z,101854.50
2022-10-26T10:56:11.413Z,101856.22
2022-10-26T10:59:06.251Z,101855.03
2022-10-26T11:01:40.003Z,101854.16
2022-10-26T11:04:16.056Z,101845.38
2022-10-26T11:06:45.464Z,101839.19
2022-10-26T11:09:17.267Z,101841.50
2022-10-26T11:11:54.382Z,101839.41
2022-10-26T11:14:30.925Z,101834.13
2022-10-26T11:17:20.302Z,101843.72
2022-10-26T11:20:05.837Z,101837.72
2022-10-26T11:22:47.008Z,101838.22
2022-10-26T11:25:35.660Z,101842.72
2022-10-26T11:28:26.045Z,101840.31
2022-10-26T11:31:00.824Z,101832.78
2022-10-26T11:33:48.799Z,101828.81
2022-10-26T11:36:21.974Z,101830.38
2022-10-26T11:39:06.543Z,101823.97
2022-10-26T11:41:45.842Z,101822.50
2022-10-26T11:44:23.067Z,101821.19
2022-10-26T11:46:55.638Z,101819.19
2022-10-26T11:49:38.494Z,101825.19
2022-10-26T11:52:22.328Z,101826.69
2022-10-26T11:55:04.972Z,101823.56
2022-10-26T11:57:37.056Z,101823.78
2022-10-26T12:00:11.458Z,101825.22
2022-10-26T12:05:16.031Z,101806.78
2022-10-26T12:07:56.280Z,101815.56
2022-10-26T12:10:33.474Z,101814.38
2022-10-26T12:13:22.935Z,101808.97
2022-10-26T12:16:11.906Z,101806.19
2022-10-26T12:19:00.523Z,101797.06
2022-10-26T12:21:32.472Z,101813.94
2022-10-26T12:24:22.043Z,101806.94
2022-10-26T12:26:59.839Z,101805.59
2022-10-26T12:29:48.086Z,101808.94
2022-10-26T12:32:43.733Z,101808.81
2022-10-26T12:35:40.426Z,101802.06
2022-10-26T12:38:29.045Z,101796.50
2022-10-26T12:41:04.574Z,101799.69
2022-10-26T12:43:31.760Z,101802.22
2022-10-26T12:46:14.296Z,101797.84
2022-10-26T12:48:46.927Z,101792.03
2022-10-26T12:51:22.971Z,101794.13
2022-10-26T12:54:05.024Z,101789.06
2022-10-26T12:56:59.540Z,101791.09
2022-10-26T12:59:43.406Z,101787.16
2022-10-26T13:02:31.813Z,101796.44
2022-10-26T13:05:08.276Z,101800.13
2022-10-26T13:07:38.116Z,101794.16
2022-10-26T13:10:26.588Z,101791.31
2022-10-26T13:12:58.890Z,101789.75
2022-10-26T13:15:54.663Z,101791.81
2022-10-26T13:18:22.751Z,101801.00
2022-10-26T13:21:11.783Z,101793.78
2022-10-26T13:23:41.529Z,101793.78
2022-10-26T13:26:16.278Z,101795.31
2022-10-26T13:28:54.237Z,101786.44
2022-10-26T13:31:33.208Z,101792.41
2022-10-26T13:34:31.880Z,101786.03
2022-10-26T13:37:17.557Z,101792.50
2022-10-26T13:39:47.551Z,101795.34
2022-10-26T13:42:24.347Z,101795.31
2022-10-26T13:45:10.346Z,101790.47
2022-10-26T13:47:52.797Z,101790.41
2022-10-26T13:50:27.558Z,101787.22
2022-10-26T13:53:17.677Z,101795.13
2022-10-26T13:55:59.331Z,101791.19
2022-10-26T13:58:33.418Z,101784.75
2022-10-26T14:01:15.680Z,101787.22
2022-10-26T14:03:43.659Z,101792.41
2022-10-26T14:06:13.633Z,101787.91
2022-10-26T14:08:43.018Z,101782.81
2022-10-26T14:11:23.415Z,101780.34
2022-10-26T14:13:51.686Z,101793.50
2022-10-26T14:16:21.072Z,101784.16
2022-10-26T14:18:49.790Z,101785.50
2022-10-26T14:21:21.106Z,101785.47
2022-10-26T14:24:07.755Z,101783.53
2022-10-26T14:26:42.340Z,101780.81
2022-10-26T14:29:18.560Z,101785.69
2022-10-26T14:31:45.796Z,101789.94
2022-10-26T14:34:13.378Z,101793.50
2022-10-26T14:36:42.917Z,101783.81
2022-10-26T14:39:27.266Z,101792.16
2022-10-26T14:41:55.619Z,101789.75
2022-10-26T14:44:25.493Z,101795.28
2022-10-26T14:46:52.958Z,101798.84
2022-10-26T14:49:24.042Z,101793.59
2022-10-26T14:51:57.977Z,101794.34
2022-10-26T14:54:28.205Z,101798.00
2022-10-26T14:56:56.407Z,101798.41
2022-10-26T14:59:29.908Z,101801.88
2022-10-26T15:02:19.855Z,101803.75
2022-10-26T15:05:17.118Z,101798.84
2022-10-26T15:07:45.855Z,101799.84
2022-10-26T15:10:34.884Z,101791.00
2022-10-26T15:13:20.568Z,101800.13
2022-10-26T15:15:49.951Z,101799.28
2022-10-26T15:18:23.530Z,101798.81
2022-10-26T15:20:52.178Z,101797.16
2022-10-26T15:23:21.517Z,101806.28
2022-10-26T15:26:04.484Z,101798.63
2022-10-26T15:28:49.842Z,101803.75
2022-10-26T15:31:17.009Z,101802.84
2022-10-26T15:33:53.239Z,101802.31
2022-10-26T15:36:26.163Z,101800.59
2022-10-26T15:38:54.001Z,101800.03
2022-10-26T15:41:31.278Z,101806.22
2022-10-26T15:44:06.334Z,101811.78
2022-10-26T15:46:36.592Z,101804.94
2022-10-26T15:49:06.680Z,101807.59
2022-10-26T15:51:34.510Z,101808.63
2022-10-26T15:54:05.664Z,101799.81
2022-10-26T15:56:34.847Z,101802.97
2022-10-26T15:59:02.496Z,101800.56
2022-10-26T16:01:30.619Z,101806.13
2022-10-26T16:03:57.917Z,101809.53
2022-10-26T16:06:28.135Z,101807.75
2022-10-26T16:09:01.822Z,101807.72
2022-10-26T16:11:29.974Z,101815.50
2022-10-26T16:13:59.691Z,101816.19
2022-10-26T16:16:31.635Z,101821.25
2022-10-26T16:19:18.318Z,101817.66
2022-10-26T16:21:46.228Z,101819.50
2022-10-26T16:24:13.425Z,101826.91
2022-10-26T16:26:40.536Z,101828.34
2022-10-26T16:29:07.714Z,101831.13
2022-10-26T16:31:34.850Z,101821.84
2022-10-26T16:34:04.206Z,101835.22
2022-10-26T16:36:34.834Z,101833.81
2022-10-26T16:41:34.903Z,101834.63
2022-10-26T16:44:02.012Z,101832.50
2022-10-26T16:46:29.250Z,101836.84
2022-10-26T16:48:56.489Z,101838.88
2022-10-26T16:51:26.872Z,101833.22
2022-10-26T16:53:56.335Z,101832.34
2022-10-26T16:56:25.735Z,101844.97
2022-10-26T16:58:53.019Z,101837.03
2022-10-26T17:01:22.552Z,101845.69
2022-10-26T17:03:51.651Z,101857.03
2022-10-26T17:06:19.588Z,101865.63
2022-10-26T17:08:47.345Z,101871.88
2022-10-26T17:11:18.074Z,101878.63
2022-10-26T17:13:46.292Z,101874.56
2022-10-26T17:16:17.486Z,101871.38
2022-10-26T17:18:45.850Z,101886.47
2022-10-26T17:21:14.650Z,101884.34
2022-10-26T17:23:41.935Z,101891.94
2022-10-26T17:26:11.703Z,101892.00
2022-10-26T17:28:39.221Z,101889.31
2022-10-26T17:31:08.561Z,101898.50
2022-10-26T17:33:37.363Z,101899.56
2022-10-26T17:36:06.232Z,101900.03
2022-10-26T17:38:42.078Z,101900.94
2022-10-26T17:41:15.291Z,101902.72
2022-10-26T17:43:44.031Z,101911.50
2022-10-26T17:46:13.646Z,101904.78
2022-10-26T17:48:40.969Z,101911.59
2022-10-26T17:51:12.813Z,101912.50
2022-10-26T17:53:40.374Z,101919.59
2022-10-26T17:56:13.307Z,101911.50
2022-10-26T17:58:40.245Z,101921.81
2022-10-26T18:01:12.881Z,101922.97
2022-10-26T18:03:41.762Z,101924.81
2022-10-26T18:06:09.116Z,101937.31
2022-10-26T18:08:37.951Z,101935.88
2022-10-26T18:11:06.993Z,101931.09
2022-10-26T18:13:34.582Z,101929.63
2022-10-26T18:16:31.387Z,101935.16
2022-10-26T18:19:04.603Z,101938.84
2022-10-26T18:21:34.200Z,101942.88
2022-10-26T18:24:01.449Z,101939.84
2022-10-26T18:26:32.146Z,101943.78
2022-10-26T18:29:01.289Z,101941.00
2022-10-26T18:31:30.028Z,101950.31
2022-10-26T18:34:02.329Z,101951.94
2022-10-26T18:36:30.333Z,101955.53
2022-10-26T18:38:57.715Z,101956.91
2022-10-26T18:41:26.382Z,101963.03
2022-10-26T18:43:59.041Z,101959.38
2022-10-26T18:46:31.432Z,101969.75
2022-10-26T18:49:01.079Z,101969.66
2022-10-26T18:51:34.091Z,101962.72
2022-10-26T18:54:01.637Z,101974.81
2022-10-26T18:56:28.944Z,101976.34
2022-10-26T18:58:59.547Z,101973.78
2022-10-26T19:01:29.412Z,101977.72
2022-10-26T19:03:59.718Z,101982.69
2022-10-26T19:06:29.866Z,101977.94
2022-10-26T19:08:57.934Z,101983.59
2022-10-26T19:11:27.716Z,101983.13
2022-10-26T19:13:55.322Z,101987.63
2022-10-26T19:16:45.522Z,101987.50
2022-10-26T19:19:12.462Z,101992.53
2022-10-26T19:21:39.631Z,102006.47
2022-10-26T19:24:12.610Z,101996.63
2022-10-26T19:26:43.129Z,101990.41
2022-10-26T19:29:16.580Z,102001.19
2022-10-26T19:31:45.923Z,101997.50
2022-10-26T19:34:13.961Z,102006.47
2022-10-26T19:36:45.120Z,102002.78
2022-10-26T19:39:14.563Z,102002.66
2022-10-26T19:41:41.951Z,102002.66
2022-10-26T19:44:11.200Z,102010.47
2022-10-26T19:46:39.704Z,102004.13
2022-10-26T19:49:07.464Z,102010.94
2022-10-26T19:51:34.823Z,102012.38
2022-10-26T19:54:06.204Z,102017.66
2022-10-26T19:56:35.434Z,102011.81
2022-10-26T19:59:03.361Z,102014.09
2022-10-26T20:01:30.591Z,102013.63
2022-10-26T20:03:58.116Z,102014.66
2022-10-26T20:06:25.166Z,102011.28
2022-10-26T20:08:52.896Z,102016.69
2022-10-26T20:11:20.643Z,102024.84
2022-10-26T20:13:48.767Z,102012.38
2022-10-26T20:16:17.863Z,102024.44
2022-10-26T20:18:49.037Z,102020.88
2022-10-26T20:21:17.773Z,102015.13
2022-10-26T20:23:45.348Z,102028.16
2022-10-26T20:26:20.151Z,102041.03
2022-10-26T20:28:51.269Z,102033.25
2022-10-26T20:31:19.657Z,102027.22
2022-10-26T20:33:50.755Z,102025.88
2022-10-26T20:36:17.983Z,102034.03
2022-10-26T20:38:45.294Z,102035.22
2022-10-26T20:41:13.254Z,102026.16
2022-10-26T20:43:41.239Z,102024.22
2022-10-26T20:46:37.910Z,102037.56
2022-10-26T20:49:05.361Z,102036.59
2022-10-26T20:52:19.316Z,102035.00
2022-10-26T20:54:52.971Z,102030.41
2022-10-26T20:57:28.494Z,102038.53
2022-10-26T21:00:04.261Z,102037.72
2022-10-26T21:02:31.975Z,102039.19
2022-10-26T21:04:59.061Z,102034.59
2022-10-26T21:07:26.210Z,102033.25
2022-10-26T21:09:53.400Z,102036.22
2022-10-26T21:12:20.589Z,102041.94
2022-10-26T21:14:47.738Z,102038.25
2022-10-26T21:17:14.815Z,102045.25
2022-10-26T21:19:42.131Z,102046.84
2022-10-26T21:22:09.411Z,102044.44
2022-10-26T21:27:08.547Z,102046.53
2022-10-26T21:29:35.699Z,102055.97
2022-10-26T21:32:02.946Z,102053.94
2022-10-26T21:34:29.983Z,102051.06
2022-10-26T21:36:58.374Z,102059.09
2022-10-26T21:39:25.427Z,102050.78
2022-10-26T21:41:52.974Z,102063.31
2022-10-26T21:44:38.916Z,102058.94
2022-10-26T21:47:07.177Z,102059.53
2022-10-26T21:49:34.211Z,102061.31
2022-10-26T21:52:01.435Z,102058.56
2022-10-26T21:54:28.682Z,102059.72
2022-10-26T21:56:55.747Z,102055.66
2022-10-26T21:59:22.927Z,102062.97
2022-10-26T22:01:50.154Z,102056.19
2022-10-26T22:04:17.379Z,102062.38
2022-10-26T22:06:44.502Z,102066.09
2022-10-26T22:09:11.758Z,102060.13
2022-10-26T22:11:38.869Z,102069.06
2022-10-26T22:14:06.196Z,102060.28
2022-10-26T22:16:33.728Z,102065.66
2022-10-26T22:19:06.671Z,102056.09
2022-10-26T22:21:39.549Z,102060.81
2022-10-26T22:24:07.641Z,102059.50
2022-10-26T22:26:36.753Z,102051.88
2022-10-26T22:29:05.032Z,102047.88
2022-10-26T22:31:34.858Z,102035.16
2022-10-26T22:34:07.716Z,102043.81
2022-10-26T22:36:35.877Z,102029.81
2022-10-26T22:39:03.498Z,102032.75
2022-10-26T22:41:31.281Z,102032.28
2022-10-26T22:43:58.414Z,102032.13
2022-10-26T22:46:28.223Z,102041.88
2022-10-26T22:48:57.209Z,102038.31
2022-10-26T22:51:25.836Z,102036.38
2022-10-26T22:53:54.768Z,102036.03
2022-10-26T22:56:23.621Z,102035.56
2022-10-26T22:58:54.160Z,102032.66
2022-10-26T23:01:24.197Z,102039.28
2022-10-26T23:03:53.030Z,102029.41
2022-10-26T23:06:20.634Z,102034.91
2022-10-26T23:08:47.948Z,102035.56
2022-10-26T23:11:18.115Z,102037.03
2022-10-26T23:13:45.370Z,102034.06
2022-10-26T23:16:20.678Z,102044.44
2022-10-26T23:18:48.519Z,102039.59
2022-10-26T23:21:17.325Z,102031.78
2022-10-26T23:23:44.870Z,102030.50
2022-10-26T23:26:14.953Z,102038.63
2022-10-26T23:28:43.726Z,102032.97
2022-10-26T23:31:23.436Z,102032.16
2022-10-26T23:33:51.624Z,102030.69
2022-10-26T23:36:19.159Z,102031.31
2022-10-26T23:38:46.765Z,102024.03
2022-10-26T23:41:14.287Z,102030.53
2022-10-26T23:43:41.468Z,102022.44
2022-10-26T23:46:08.861Z,102022.78
2022-10-26T23:48:36.015Z,102023.09
2022-10-26T23:51:03.027Z,102022.13
2022-10-26T23:53:30.164Z,102025.88
2022-10-26T23:55:57.102Z,102020.03
2022-10-26T23:58:24.263Z,102018.94
